Time;durP1;ratioP1;P1;durP2;ratioP2;P2;SDS_P1;SDS_P2;PMS_P1;PMS_P2;Temp;Humidity;BMP_temperature;BMP_pressure;BME280_temperature;BME280_humidity;BME280_pressure;Samples;Min_cycle;Max_cycle;Signal;HPM_P1;HPM_P2
2023/04/13 00:00:33;;;;;;;2.80;1.00;;;;;;;9.04;69.77;98553.19;5043952;28;20216;-81
2023/04/13 00:03:00;;;;;;;1.40;1.00;;;;;;;9.02;69.82;98547.25;5041382;28;20367;-81
2023/04/13 00:05:27;;;;;;;1.27;0.95;;;;;;;8.98;69.56;98554.47;5045211;28;20315;-81
2023/04/13 00:07:53;;;;;;;3.65;0.90;;;;;;;8.98;69.63;98546.63;5046928;28;20205;-81
2023/04/13 00:10:20;;;;;;;2.60;0.90;;;;;;;8.96;69.41;98547.69;5046124;28;20689;-81
2023/04/13 00:12:48;;;;;;;1.00;0.80;;;;;;;8.94;69.25;98554.81;5047213;28;20210;-81
2023/04/13 00:15:16;;;;;;;3.15;1.13;;;;;;;8.94;69.06;98558.28;5042897;28;20224;-81
2023/04/13 00:17:42;;;;;;;1.67;0.80;;;;;;;8.93;68.85;98551.34;5050787;28;20259;-81
2023/04/13 00:20:12;;;;;;;2.53;0.90;;;;;;;8.92;68.52;98560.16;5067639;28;20238;-81
2023/04/13 00:22:38;;;;;;;6.43;0.90;;;;;;;8.88;68.64;98550.84;5057547;28;20229;-81
2023/04/13 00:25:05;;;;;;;1.00;0.75;;;;;;;8.89;68.31;98544.69;5063900;28;20306;-81
2023/04/13 00:27:30;;;;;;;1.10;0.95;;;;;;;8.88;68.22;98540.38;5063673;28;20217;-81
2023/04/13 00:29:58;;;;;;;1.13;1.02;;;;;;;8.88;67.96;98529.06;5064524;28;20536;-80
2023/04/13 00:32:24;;;;;;;2.60;0.80;;;;;;;8.86;67.84;98529.22;5061387;28;20197;-80
2023/04/13 00:34:51;;;;;;;1.98;1.20;;;;;;;8.84;67.92;98544.19;5060241;28;20208;-80
2023/04/13 00:37:18;;;;;;;1.85;0.95;;;;;;;8.82;67.84;98548.69;5064524;28;20728;-80
2023/04/13 00:39:45;;;;;;;6.20;0.90;;;;;;;8.82;67.74;98548.69;5067334;28;20197;-80
2023/04/13 00:42:12;;;;;;;1.03;0.70;;;;;;;8.80;67.72;98547.97;5047334;28;20205;-80
2023/04/13 00:44:38;;;;;;;3.63;1.23;;;;;;;8.79;67.57;98554.16;5061494;28;20204;-80
2023/04/13 00:47:07;;;;;;;0.90;0.70;;;;;;;8.77;67.68;98558.66;5056630;28;20347;-81
2023/04/13 00:49:33;;;;;;;1.55;1.10;;;;;;;8.75;67.69;98558.78;5057047;28;20211;-80
2023/04/13 00:52:00;;;;;;;1.60;0.90;;;;;;;8.71;67.69;98553.88;5061939;28;20189;-81
2023/04/13 00:54:28;;;;;;;0.70;0.60;;;;;;;8.68;67.75;98557.56;5055811;28;20200;-80
2023/04/13 00:56:55;;;;;;;2.70;0.90;;;;;;;8.65;67.53;98549.94;5057755;28;20247;-80
2023/04/13 00:59:22;;;;;;;4.97;1.23;;;;;;;8.61;67.70;98551.09;5062954;28;20228;-80
2023/04/13 01:01:55;;;;;;;3.53;1.40;;;;;;;8.60;67.67;98541.56;5063626;28;20550;-81
2023/04/13 01:04:24;;;;;;;2.65;1.17;;;;;;;8.57;67.56;98541.81;5062764;28;20209;-80
2023/04/13 01:07:00;;;;;;;0.80;0.70;;;;;;;8.55;67.50;98538.44;5060627;28;20205;-81
2023/04/13 01:09:40;;;;;;;1.45;0.80;;;;;;;8.51;67.55;98532.63;5065805;28;20243;-80
2023/04/13 01:12:25;;;;;;;2.42;0.90;;;;;;;8.49;67.51;98539.72;5056467;28;20625;-80
2023/04/13 01:15:10;;;;;;;1.75;1.15;;;;;;;8.47;67.32;98541.63;5047727;28;20279;-80
2023/04/13 01:17:37;;;;;;;2.35;0.80;;;;;;;8.43;67.46;98531.50;5061575;28;20244;-80
2023/04/13 01:20:11;;;;;;;2.13;0.80;;;;;;;8.43;67.37;98531.50;5043192;28;20297;-81
2023/04/13 01:22:41;;;;;;;2.10;1.10;;;;;;;8.39;67.48;98536.94;5046942;28;20208;-80
2023/04/13 01:25:17;;;;;;;1.00;0.85;;;;;;;8.38;67.34;98531.78;5043350;28;20725;-80
2023/04/13 01:27:54;;;;;;;2.22;1.25;;;;;;;8.34;67.30;98536.38;5042879;28;20208;-81
2023/04/13 01:30:23;;;;;;;4.15;1.00;;;;;;;8.34;67.27;98530.31;5042544;28;20996;-81
2023/04/13 01:32:52;;;;;;;5.22;1.10;;;;;;;8.31;67.19;98527.94;5060729;28;20185;-80
2023/04/13 01:35:19;;;;;;;2.20;1.10;;;;;;;8.29;67.24;98528.06;5043146;28;20212;-80
2023/04/13 01:37:50;;;;;;;1.45;1.00;;;;;;;8.27;67.12;98527.31;5044183;28;20471;-80
2023/04/13 01:40:18;;;;;;;1.25;0.85;;;;;;;8.25;67.04;98520.53;5037989;28;20229;-80
2023/04/13 01:42:48;;;;;;;1.25;0.93;;;;;;;8.24;67.03;98524.94;5045881;28;20633;-80
2023/04/13 01:45:25;;;;;;;2.60;1.03;;;;;;;8.25;67.02;98523.16;5041452;28;20287;-80
2023/04/13 01:47:54;;;;;;;2.45;0.95;;;;;;;8.20;66.70;98521.69;5056026;28;20213;-80
2023/04/13 01:50:30;;;;;;;3.00;1.25;;;;;;;8.19;66.50;98522.63;5039648;28;20208;-80
2023/04/13 01:53:10;;;;;;;0.88;0.70;;;;;;;8.18;66.34;98525.34;5063011;28;20197;-80
2023/04/13 01:55:40;;;;;;;0.82;0.75;;;;;;;8.17;66.27;98532.38;5046752;28;20189;-80
2023/04/13 01:58:09;;;;;;;1.70;1.48;;;;;;;8.16;66.28;98525.47;5052032;28;20249;-80
2023/04/13 02:00:36;;;;;;;3.00;0.93;;;;;;;8.16;66.01;98528.09;5045356;28;20553;-80
2023/04/13 02:03:05;;;;;;;1.08;0.82;;;;;;;8.15;66.00;98529.03;5043773;28;20759;-80
2023/04/13 02:05:32;;;;;;;2.28;0.93;;;;;;;8.14;65.90;98539.59;5064232;28;20219;-80
2023/04/13 02:07:57;;;;;;;6.03;1.20;;;;;;;8.14;65.66;98539.59;5046450;28;20219;-80
2023/04/13 02:10:23;;;;;;;1.87;1.20;;;;;;;8.13;65.38;98544.00;5047970;28;20186;-80
2023/04/13 02:12:48;;;;;;;1.93;0.90;;;;;;;8.13;65.18;98541.41;5072213;28;20983;-80
2023/04/13 02:15:14;;;;;;;1.53;0.80;;;;;;;8.13;65.13;98543.19;5051119;28;20194;-80
2023/04/13 02:17:40;;;;;;;2.07;1.23;;;;;;;8.12;65.18;98554.56;5051465;28;20760;-80
2023/04/13 02:20:16;;;;;;;1.63;0.85;;;;;;;8.10;65.01;98557.31;5036077;28;20533;-80
2023/04/13 02:22:44;;;;;;;5.07;1.50;;;;;;;8.08;65.00;98564.41;5051290;28;20297;-80
2023/04/13 02:25:11;;;;;;;3.15;0.70;;;;;;;8.07;65.03;98559.28;5031484;28;20193;-80
2023/04/13 02:27:38;;;;;;;3.58;1.55;;;;;;;8.04;65.11;98559.50;5031977;28;20205;-80
2023/04/13 02:30:06;;;;;;;3.72;2.03;;;;;;;8.02;64.87;98569.22;5025066;28;20220;-80
2023/04/13 02:32:38;;;;;;;1.35;1.05;;;;;;;7.98;65.06;98566.81;5032209;28;20178;-80
2023/04/13 02:35:04;;;;;;;5.72;1.30;;;;;;;7.96;64.93;98557.41;5049824;28;20258;-80
2023/04/13 02:37:31;;;;;;;1.47;1.17;;;;;;;7.94;65.15;98562.78;5033944;28;20205;-80
2023/04/13 02:39:57;;;;;;;1.40;1.30;;;;;;;7.94;65.01;98570.63;5029990;28;20919;-80
2023/04/13 02:42:23;;;;;;;1.80;1.30;;;;;;;7.95;64.88;98558.38;5027945;28;20225;-80
2023/04/13 02:44:51;;;;;;;1.90;1.20;;;;;;;7.94;64.84;98562.78;5029655;28;20251;-80
2023/04/13 02:47:17;;;;;;;2.53;1.30;;;;;;;7.94;64.67;98561.94;5030280;28;20289;-80
2023/04/13 02:49:46;;;;;;;3.73;1.30;;;;;;;7.93;64.69;98566.31;5027297;28;20205;-80
2023/04/13 02:52:20;;;;;;;0.80;0.75;;;;;;;7.92;64.55;98556.81;5027397;28;20963;-80
2023/04/13 02:54:57;;;;;;;1.55;0.85;;;;;;;7.92;64.38;98566.44;5029055;28;20247;-80
2023/04/13 02:57:26;;;;;;;5.90;1.15;;;;;;;7.89;64.42;98567.47;5031323;28;20190;-80
2023/04/13 02:59:54;;;;;;;3.80;0.98;;;;;;;7.88;64.43;98565.78;5009994;28;20212;-80
2023/04/13 03:02:22;;;;;;;0.80;0.73;;;;;;;7.85;64.02;98560.78;5027242;28;20209;-80
2023/04/13 03:04:47;;;;;;;1.40;1.00;;;;;;;7.84;64.17;98561.72;5024773;28;20190;-80
2023/04/13 03:07:15;;;;;;;0.82;0.75;;;;;;;7.88;64.28;98554.50;5028556;28;20467;-81
2023/04/13 03:09:46;;;;;;;1.40;0.90;;;;;;;7.90;64.20;98555.22;5028397;28;20202;-81
2023/04/13 03:12:13;;;;;;;1.75;1.00;;;;;;;7.92;64.07;98558.59;5029564;28;20205;-80
2023/04/13 03:14:41;;;;;;;0.90;0.80;;;;;;;7.93;64.06;98555.03;5024781;28;20194;-80
2023/04/13 03:17:10;;;;;;;3.17;1.10;;;;;;;7.94;63.95;98556.72;5023667;28;20685;-80
2023/04/13 03:19:37;;;;;;;2.97;1.10;;;;;;;7.95;63.93;98558.38;5044611;28;20288;-80
2023/04/13 03:22:04;;;;;;;2.40;1.10;;;;;;;7.97;63.76;98569.56;5042857;28;20226;-80
2023/04/13 03:24:31;;;;;;;0.98;0.88;;;;;;;8.02;63.58;98569.22;5037462;28;20236;-80
2023/04/13 03:27:02;;;;;;;6.30;1.60;;;;;;;8.02;63.72;98583.16;5057936;28;20299;-80
2023/04/13 03:29:33;;;;;;;1.00;0.75;;;;;;;8.04;63.57;98577.81;5040990;28;20229;-80
2023/04/13 03:31:59;;;;;;;2.60;0.90;;;;;;;8.02;63.56;98580.53;5037667;28;20236;-80
2023/04/13 03:34:28;;;;;;;1.30;1.02;;;;;;;8.06;63.41;98568.91;5055071;28;20202;-80
2023/04/13 03:36:57;;;;;;;0.90;0.80;;;;;;;8.04;63.50;98565.56;5052296;28;20217;-81
2023/04/13 03:39:23;;;;;;;1.70;0.80;;;;;;;8.06;63.39;98563.69;5057494;28;20405;-80
2023/04/13 03:41:49;;;;;;;3.30;0.87;;;;;;;8.06;63.35;98563.69;5040612;28;20887;-80
2023/04/13 03:44:16;;;;;;;2.85;1.17;;;;;;;8.04;63.22;98560.31;5040756;28;20432;-80
2023/04/13 03:46:41;;;;;;;3.17;1.10;;;;;;;8.02;63.05;98561.38;5040711;28;20223;-80
2023/04/13 03:49:20;;;;;;;4.47;1.10;;;;;;;7.97;63.00;98552.09;5041153;28;20329;-80
2023/04/13 03:51:46;;;;;;;1.17;0.80;;;;;;;7.94;62.85;98557.53;5042852;28;20301;-80
2023/04/13 03:54:13;;;;;;;1.95;1.30;;;;;;;7.93;62.96;98563.69;5036457;28;20283;-80
2023/04/13 03:56:39;;;;;;;3.83;1.20;;;;;;;7.96;62.94;98567.88;5037593;28;20297;-80
2023/04/13 03:59:07;;;;;;;2.78;1.20;;;;;;;7.97;62.76;98559.94;5039354;28;20213;-80
2023/04/13 04:01:34;;;;;;;4.65;1.08;;;;;;;8.03;62.54;98573.53;5039352;28;20197;-81
2023/04/13 04:03:59;;;;;;;2.87;1.00;;;;;;;8.06;62.37;98566.28;5039337;28;20198;-80
2023/04/13 04:06:27;;;;;;;1.80;1.35;;;;;;;8.08;62.20;98569.66;5060866;28;20608;-80
2023/04/13 04:09:03;;;;;;;4.38;2.00;;;;;;;8.09;62.09;98571.31;5043074;28;20375;-81
2023/04/13 04:11:37;;;;;;;2.15;0.90;;;;;;;8.09;61.96;98573.91;5042873;28;20212;-81
2023/04/13 04:14:05;;;;;;;2.83;1.02;;;;;;;8.07;61.94;98585.44;5046820;28;20250;-80
2023/04/13 04:16:31;;;;;;;3.77;1.13;;;;;;;8.02;61.90;98582.31;5057964;28;20193;-80
2023/04/13 04:19:05;;;;;;;3.40;1.20;;;;;;;8.01;61.93;98593.72;5030327;28;20208;-80
2023/04/13 04:21:34;;;;;;;3.43;1.00;;;;;;;7.97;61.66;98582.63;5047103;28;20209;-81
2023/04/13 04:24:05;;;;;;;3.92;1.50;;;;;;;7.97;61.79;98585.25;5043152;28;20298;-81
2023/04/13 04:26:31;;;;;;;3.92;1.55;;;;;;;7.95;61.77;98595.81;5053062;28;20730;-81
2023/04/13 04:29:02;;;;;;;2.25;1.30;;;;;;;7.97;61.78;98591.31;5041392;28;20205;-81
2023/04/13 04:31:33;;;;;;;2.90;1.70;;;;;;;7.98;61.49;98592.16;5042713;28;20304;-81
2023/04/13 04:34:00;;;;;;;6.95;2.70;;;;;;;8.02;61.53;98598.00;5035296;28;20289;-81
2023/04/13 04:36:26;;;;;;;2.42;1.13;;;;;;;8.05;61.46;98598.63;5036138;28;20205;-81
2023/04/13 04:39:01;;;;;;;2.55;0.98;;;;;;;8.05;61.20;98601.25;5036821;28;20669;-81
2023/04/13 04:41:27;;;;;;;1.20;1.10;;;;;;;8.07;61.07;98596.72;5039266;28;20204;-81
2023/04/13 04:44:01;;;;;;;2.95;1.10;;;;;;;8.10;61.13;98603.53;5033852;28;20221;-81
2023/04/13 04:46:28;;;;;;;3.55;1.25;;;;;;;8.12;60.96;98599.84;5044121;28;20229;-81
2023/04/13 04:48:59;;;;;;;4.68;1.73;;;;;;;8.14;61.16;98603.22;5032861;28;20205;-82
2023/04/13 04:51:26;;;;;;;7.18;1.50;;;;;;;8.15;61.28;98604.88;5038697;28;20190;-80
2023/04/13 04:53:52;;;;;;;4.53;2.22;;;;;;;8.16;61.03;98598.72;5030217;28;20190;-81
2023/04/13 04:56:20;;;;;;;3.90;1.30;;;;;;;8.17;61.03;98604.78;5034947;28;20201;-81
2023/04/13 04:58:48;;;;;;;4.72;1.65;;;;;;;8.17;60.87;98607.41;5048109;28;20236;-81
2023/04/13 05:01:16;;;;;;;6.47;1.47;;;;;;;8.18;60.94;98606.44;5050169;28;20202;-81
2023/04/13 05:03:42;;;;;;;2.00;1.00;;;;;;;8.19;60.84;98616.81;5037463;28;20571;-81
2023/04/13 05:06:21;;;;;;;1.90;1.10;;;;;;;8.19;61.09;98613.38;5031730;28;20201;-80
2023/04/13 05:08:46;;;;;;;3.95;1.05;;;;;;;8.20;60.92;98621.09;5052398;28;20207;-81
2023/04/13 05:11:12;;;;;;;2.47;1.80;;;;;;;8.20;60.85;98623.69;5038181;28;20193;-81
2023/04/13 05:13:38;;;;;;;1.63;1.45;;;;;;;8.20;60.84;98623.69;5049431;28;20186;-81
2023/04/13 05:16:23;;;;;;;3.45;1.45;;;;;;;8.21;60.91;98624.56;5038729;28;21355;-81
2023/04/13 05:18:51;;;;;;;1.65;1.30;;;;;;;8.24;60.87;98628.75;5050620;22;20907;-80
2023/04/13 05:21:31;;;;;;;4.78;1.35;;;;;;;8.25;60.85;98639.09;5014997;28;20229;-80
2023/04/13 05:23:59;;;;;;;2.67;0.95;;;;;;;8.27;60.82;98641.63;5038576;28;20208;-82
2023/04/13 05:26:26;;;;;;;2.25;1.20;;;;;;;8.26;60.74;98642.53;5043803;28;20193;-80
2023/04/13 05:28:51;;;;;;;4.32;1.15;;;;;;;8.27;60.65;98644.22;5040788;28;20323;-80
2023/04/13 05:31:17;;;;;;;3.40;1.30;;;;;;;8.28;60.64;98641.50;5031826;28;20311;-80
2023/04/13 05:33:43;;;;;;;6.70;1.75;;;;;;;8.31;60.81;98650.91;5042267;28;20211;-80
2023/04/13 05:36:09;;;;;;;5.77;1.63;;;;;;;8.31;60.85;98635.22;5039530;28;20193;-81
2023/04/13 05:38:37;;;;;;;4.00;1.40;;;;;;;8.32;60.75;98640.34;5044897;28;20277;-80
2023/04/13 05:41:04;;;;;;;4.60;1.50;;;;;;;8.36;60.79;98638.34;5053294;28;20201;-80
2023/04/13 05:43:33;;;;;;;4.15;1.45;;;;;;;8.40;60.75;98642.47;5034043;28;20275;-81
2023/04/13 05:45:58;;;;;;;3.63;2.10;;;;;;;8.43;60.54;98646.66;5043507;28;20190;-81
2023/04/13 05:48:25;;;;;;;10.83;2.53;;;;;;;8.47;60.50;98642.84;5054651;28;20654;-81
2023/04/13 05:50:57;;;;;;;4.25;1.70;;;;;;;8.50;60.15;98642.63;5034841;28;21197;-81
2023/04/13 05:53:24;;;;;;;5.85;1.55;;;;;;;8.53;60.18;98645.03;5035754;28;20197;-81
2023/04/13 05:55:53;;;;;;;3.35;1.42;;;;;;;8.56;59.88;98647.44;5036243;28;20194;-81
2023/04/13 05:58:19;;;;;;;1.30;1.10;;;;;;;8.59;59.99;98645.44;5037828;28;20201;-82
2023/04/13 06:00:47;;;;;;;2.63;1.17;;;;;;;8.62;60.04;98647.84;5045653;28;20192;-81
2023/04/13 06:03:19;;;;;;;6.35;1.50;;;;;;;8.67;59.76;98647.53;5046003;28;20759;-82
2023/04/13 06:05:45;;;;;;;3.47;1.57;;;;;;;8.69;59.53;98655.25;5034680;28;20204;-81
2023/04/13 06:08:12;;;;;;;5.70;2.00;;;;;;;8.70;59.48;98651.72;5055973;28;20300;-81
2023/04/13 06:10:38;;;;;;;4.93;1.63;;;;;;;8.71;59.39;98653.38;5048061;28;20760;-82
2023/04/13 06:13:04;;;;;;;5.03;1.70;;;;;;;8.75;59.18;98649.56;5065549;28;20201;-82
2023/04/13 06:15:30;;;;;;;2.07;1.10;;;;;;;8.76;59.12;98652.09;5045834;28;20451;-81
2023/04/13 06:17:55;;;;;;;9.65;1.30;;;;;;;8.79;58.89;98645.81;5055573;28;20498;-81
2023/04/13 06:20:22;;;;;;;3.80;1.35;;;;;;;8.80;59.10;98653.56;5063561;28;20193;-80
2023/04/13 06:22:48;;;;;;;3.13;1.67;;;;;;;8.82;58.89;98651.66;5045639;28;20216;-81
2023/04/13 06:25:17;;;;;;;3.78;1.48;;;;;;;8.88;58.72;98645.13;5044749;28;20665;-82
2023/04/13 06:27:45;;;;;;;6.95;2.78;;;;;;;8.91;58.55;98650.19;5047189;28;20211;-82
2023/04/13 06:30:12;;;;;;;7.18;1.40;;;;;;;8.94;58.07;98655.19;5036850;28;20670;-82
2023/04/13 06:32:38;;;;;;;1.95;1.23;;;;;;;8.96;57.92;98661.13;5041696;28;20194;-82
2023/04/13 06:35:04;;;;;;;3.33;1.17;;;;;;;8.99;58.04;98657.44;5043271;28;20212;-82
2023/04/13 06:37:35;;;;;;;3.30;1.40;;;;;;;9.04;58.18;98653.56;5048173;28;20197;-82
2023/04/13 06:40:12;;;;;;;1.45;1.00;;;;;;;9.13;57.79;98661.69;5045069;28;20784;-82
2023/04/13 06:42:44;;;;;;;4.18;1.27;;;;;;;9.23;57.42;98660.91;5046872;28;20216;-82
2023/04/13 06:45:32;;;;;;;4.70;1.90;;;;;;;9.36;56.93;98663.47;5045083;28;20208;-81
2023/04/13 06:47:59;;;;;;;4.70;1.50;;;;;;;9.50;56.80;98663.31;5063780;28;20204;-82
2023/04/13 06:50:28;;;;;;;4.50;1.67;;;;;;;9.61;56.58;98654.59;5048128;28;20796;-82
2023/04/13 06:52:57;;;;;;;5.88;1.42;;;;;;;9.70;56.16;98659.19;5048265;28;20189;-82
2023/04/13 06:55:22;;;;;;;9.07;1.30;;;;;;;9.77;56.07;98656.09;5046266;28;20203;-82
2023/04/13 06:57:48;;;;;;;3.47;1.10;;;;;;;9.86;55.59;98653.63;5054434;28;20315;-82
2023/04/13 07:00:14;;;;;;;2.43;1.37;;;;;;;9.92;55.38;98666.25;5064328;28;20205;-82
2023/04/13 07:02:42;;;;;;;5.18;1.50;;;;;;;9.97;55.36;98666.75;5050588;28;20218;-82
2023/04/13 07:05:08;;;;;;;3.55;1.10;;;;;;;10.06;55.35;98664.38;5046296;28;20196;-82
2023/04/13 07:07:34;;;;;;;3.83;1.42;;;;;;;10.17;55.01;98665.22;5047804;28;20250;-82
2023/04/13 07:10:01;;;;;;;3.33;1.75;;;;;;;10.35;54.74;98652.50;5045257;28;20295;-79
2023/04/13 07:12:28;;;;;;;6.65;1.40;;;;;;;10.50;53.90;98658.31;5043437;28;20196;-80
2023/04/13 07:14:53;;;;;;;5.40;1.60;;;;;;;10.56;53.79;98654.41;5060139;28;20253;-81
2023/04/13 07:17:21;;;;;;;4.57;1.00;;;;;;;10.58;53.43;98644.59;5051036;28;20208;-82
2023/04/13 07:19:48;;;;;;;9.43;2.05;;;;;;;10.63;53.56;98652.94;5042164;28;20200;-82
2023/04/13 07:22:15;;;;;;;5.00;1.73;;;;;;;10.74;53.60;98645.03;5062705;28;20197;-82
2023/04/13 07:24:41;;;;;;;3.08;1.80;;;;;;;10.99;52.98;98654.44;5045790;28;20189;-81
2023/04/13 07:27:10;;;;;;;2.22;1.05;;;;;;;11.25;52.16;98654.94;5047067;28;20196;-82
2023/04/13 07:29:36;;;;;;;6.87;1.73;;;;;;;11.56;51.31;98655.06;5044249;28;20205;-81
2023/04/13 07:32:06;;;;;;;3.67;1.00;;;;;;;11.83;50.83;98661.63;5048270;28;20213;-81
2023/04/13 07:34:33;;;;;;;3.08;1.30;;;;;;;12.07;50.12;98662.22;5047360;28;20196;-82
2023/04/13 07:36:59;;;;;;;8.60;1.65;;;;;;;12.18;49.82;98669.19;5044930;28;20201;-82
2023/04/13 07:39:25;;;;;;;5.00;2.60;;;;;;;12.13;49.76;98666.94;5058057;28;20215;-82
2023/04/13 07:41:52;;;;;;;6.28;2.08;;;;;;;11.95;50.50;98679.03;5048084;28;20197;-82
2023/04/13 07:44:23;;;;;;;3.50;1.88;;;;;;;11.70;51.02;98669.69;5046036;28;20266;-82
2023/04/13 07:46:50;;;;;;;13.63;4.07;;;;;;;11.47;51.32;98676.84;5044889;28;20225;-82
2023/04/13 07:49:16;;;;;;;5.25;1.80;;;;;;;11.24;51.93;98679.56;5045051;28;20268;-82
2023/04/13 07:51:42;;;;;;;4.33;2.00;;;;;;;11.03;52.46;98678.66;5049013;28;20284;-82
2023/04/13 07:54:08;;;;;;;4.73;2.33;;;;;;;10.83;52.79;98683.72;5046401;28;20463;-82
2023/04/13 07:56:35;;;;;;;2.92;1.60;;;;;;;10.70;53.12;98683.03;5046468;28;20193;-82
2023/04/13 07:59:01;;;;;;;5.35;3.00;;;;;;;10.58;53.74;98686.59;5046076;28;20689;-83
2023/04/13 08:01:26;;;;;;;3.43;1.47;;;;;;;10.50;53.95;98681.94;5040530;28;20228;-82
2023/04/13 08:03:53;;;;;;;4.60;2.00;;;;;;;10.46;54.37;98684.94;5052626;28;20804;-82
2023/04/13 08:06:22;;;;;;;3.08;1.42;;;;;;;10.42;54.67;98697.47;5054660;28;20311;-82
2023/04/13 08:08:49;;;;;;;8.82;2.70;;;;;;;10.41;54.75;98698.44;5043675;28;20219;-82
2023/04/13 08:11:15;;;;;;;3.50;1.40;;;;;;;10.37;54.69;98695.22;5043397;28;20291;-82
2023/04/13 08:13:42;;;;;;;1.90;1.20;;;;;;;10.35;54.75;98697.13;5042189;28;20185;-82
2023/04/13 08:16:08;;;;;;;3.80;2.30;;;;;;;10.36;54.95;98704.03;5043225;28;20204;-82
2023/04/13 08:18:34;;;;;;;5.05;1.80;;;;;;;10.41;54.74;98699.25;5040909;28;20240;-83
2023/04/13 08:21:06;;;;;;;5.18;2.38;;;;;;;10.48;54.63;98689.13;5045783;28;20193;-84
2023/04/13 08:23:31;;;;;;;2.47;1.60;;;;;;;10.58;54.33;98691.84;5052954;28;20208;-82
2023/04/13 08:26:01;;;;;;;8.87;3.40;;;;;;;10.75;54.15;98680.03;5053914;28;20194;-82
2023/04/13 08:28:26;;;;;;;3.33;1.90;;;;;;;10.92;53.52;98673.44;5074777;28;20582;-82
2023/04/13 08:30:52;;;;;;;5.17;2.40;;;;;;;11.15;53.31;98672.44;5071094;28;20677;-82
2023/04/13 08:33:17;;;;;;;6.73;2.20;;;;;;;11.57;51.91;98669.88;5053142;28;20270;-82
2023/04/13 08:35:43;;;;;;;5.97;1.97;;;;;;;11.83;50.83;98665.06;5070183;28;20264;-82
2023/04/13 08:38:11;;;;;;;4.93;1.90;;;;;;;11.98;50.57;98670.03;5051348;28;20220;-82
2023/04/13 08:40:41;;;;;;;2.00;1.30;;;;;;;12.15;49.81;98672.06;5055778;28;20193;-82
2023/04/13 08:43:13;;;;;;;6.90;2.03;;;;;;;12.45;49.08;98673.03;5056470;28;20209;-84
2023/04/13 08:45:42;;;;;;;8.43;2.55;;;;;;;12.96;47.87;98665.03;5064184;28;20185;-82
2023/04/13 08:48:12;;;;;;;2.28;1.77;;;;;;;13.53;46.58;98661.75;5062837;28;20226;-80
2023/04/13 08:50:41;;;;;;;3.00;1.80;;;;;;;13.95;45.71;98657.81;5045165;28;20193;-82
2023/04/13 08:53:08;;;;;;;6.55;2.20;;;;;;;14.37;44.71;98651.31;5063963;28;20188;-82
2023/04/13 08:55:33;;;;;;;10.67;2.03;;;;;;;14.49;44.40;98649.31;5046161;28;20197;-79
2023/04/13 08:58:02;;;;;;;6.57;1.80;;;;;;;14.59;44.51;98650.13;5069242;28;20333;-81
2023/04/13 09:00:28;;;;;;;4.15;2.80;;;;;;;14.64;44.48;98650.53;5067118;28;20189;-82
2023/04/13 09:03:01;;;;;;;5.15;2.40;;;;;;;14.54;44.14;98647.91;5054044;28;20295;-83
2023/04/13 09:05:28;;;;;;;8.32;2.00;;;;;;;14.32;44.70;98638.53;5060279;28;20598;-81
2023/04/13 09:08:00;;;;;;;8.00;2.05;;;;;;;14.17;44.71;98650.53;5053347;28;20196;-80
2023/04/13 09:10:26;;;;;;;2.17;1.40;;;;;;;14.18;44.80;98646.94;5057915;28;20204;-80
2023/04/13 09:12:52;;;;;;;3.05;1.23;;;;;;;14.09;44.60;98653.06;5056393;28;20193;-80
2023/04/13 09:15:18;;;;;;;2.53;1.57;;;;;;;13.91;44.20;98656.44;5052651;28;20193;-80
2023/04/13 09:17:54;;;;;;;1.70;1.10;;;;;;;13.76;44.09;98655.22;5061138;28;20220;-81
2023/04/13 09:20:22;;;;;;;6.20;1.73;;;;;;;13.84;44.23;98643.94;5063904;28;20193;-83
2023/04/13 09:22:49;;;;;;;6.18;2.15;;;;;;;13.94;44.16;98642.13;5074122;28;20233;-81
2023/04/13 09:25:26;;;;;;;2.97;1.40;;;;;;;13.85;44.65;98646.47;5075018;28;20714;-82
2023/04/13 09:27:52;;;;;;;2.35;1.35;;;;;;;13.79;44.98;98636.44;5073934;28;20201;-81
2023/04/13 09:30:25;;;;;;;1.20;1.00;;;;;;;13.68;45.26;98649.81;5063299;28;20213;-81
2023/04/13 09:33:04;;;;;;;3.97;1.60;;;;;;;13.47;45.27;98650.81;5074486;28;20645;-81
2023/04/13 09:35:31;;;;;;;1.98;0.90;;;;;;;13.48;45.17;98660.38;5069189;28;20256;-80
2023/04/13 09:37:58;;;;;;;1.50;1.00;;;;;;;13.57;45.08;98648.16;5073777;28;20613;-81
2023/04/13 09:40:23;;;;;;;2.55;1.23;;;;;;;13.57;45.32;98636.75;5049082;28;20189;-82
2023/04/13 09:43:01;;;;;;;2.30;1.00;;;;;;;13.71;44.99;98638.97;5066530;28;20206;-84
2023/04/13 09:45:37;;;;;;;2.42;0.90;;;;;;;13.92;44.76;98625.59;5061578;28;20350;-82
2023/04/13 09:48:04;;;;;;;1.65;0.93;;;;;;;14.01;44.48;98631.81;5070079;28;20220;-82
2023/04/13 09:50:32;;;;;;;0.98;0.85;;;;;;;14.11;44.18;98633.44;5070006;28;20189;-82
2023/04/13 09:53:04;;;;;;;2.40;1.10;;;;;;;14.17;43.65;98640.78;5068141;28;20541;-82
2023/04/13 09:55:31;;;;;;;1.58;1.48;;;;;;;14.18;43.51;98636.38;5063729;28;20204;-83
2023/04/13 09:58:14;;;;;;;3.95;1.50;;;;;;;14.31;43.47;98625.44;5060918;28;20697;-82
2023/04/13 10:00:41;;;;;;;2.55;1.00;;;;;;;14.54;42.94;98618.84;5056072;28;20238;-83
2023/04/13 10:03:14;;;;;;;1.90;1.10;;;;;;;14.72;42.61;98615.44;5058040;28;20280;-84
2023/04/13 10:05:43;;;;;;;4.15;1.40;;;;;;;14.90;42.55;98610.97;5080685;28;20221;-84
2023/04/13 10:08:09;;;;;;;5.95;1.75;;;;;;;15.09;42.21;98612.66;5059566;28;20236;-82
2023/04/13 10:10:36;;;;;;;6.53;1.30;;;;;;;15.14;41.72;98618.31;5060759;28;20795;-83
2023/04/13 10:13:06;;;;;;;2.03;1.08;;;;;;;15.22;41.50;98605.16;5065681;28;20506;-82
2023/04/13 10:15:47;;;;;;;3.75;1.10;;;;;;;15.32;41.06;98609.56;5068761;28;20823;-82
2023/04/13 10:18:32;;;;;;;1.20;1.05;;;;;;;15.26;41.49;98605.72;5071964;28;20316;-82
2023/04/13 10:20:58;;;;;;;3.42;1.40;;;;;;;15.17;41.34;98599.50;5066548;28;20254;-81
2023/04/13 10:23:26;;;;;;;2.95;1.50;;;;;;;15.08;41.65;98613.63;5079519;28;20208;-83
2023/04/13 10:25:53;;;;;;;3.22;1.20;;;;;;;15.04;41.71;98605.19;5076661;28;20692;-81
2023/04/13 10:28:20;;;;;;;4.70;1.48;;;;;;;14.92;42.13;98606.38;5074497;28;20205;-81
2023/04/13 10:30:51;;;;;;;2.33;1.80;;;;;;;14.77;42.28;98606.06;5080670;28;20189;-81
2023/04/13 10:33:17;;;;;;;3.17;2.08;;;;;;;14.65;41.80;98609.06;5071120;28;20203;-81
2023/04/13 10:35:57;;;;;;;4.40;1.50;;;;;;;14.53;42.10;98616.38;5069820;28;20256;-81
2023/04/13 10:38:23;;;;;;;3.75;1.40;;;;;;;14.35;41.48;98609.16;5074191;28;20553;-82
2023/04/13 10:40:49;;;;;;;8.13;2.73;;;;;;;14.15;42.12;98610.25;5068783;28;20193;-81
2023/04/13 10:43:31;;;;;;;4.10;2.20;;;;;;;14.09;42.09;98600.25;5073978;28;20206;-82
2023/04/13 10:46:12;;;;;;;7.38;2.47;;;;;;;14.09;42.38;98600.25;5079130;28;20452;-81
2023/04/13 10:48:40;;;;;;;2.45;1.30;;;;;;;14.07;42.50;98602.19;5074904;28;20833;-82
2023/04/13 10:51:06;;;;;;;3.30;1.48;;;;;;;14.05;42.54;98599.72;5081451;28;20798;-82
2023/04/13 10:53:33;;;;;;;2.00;1.17;;;;;;;14.03;42.55;98598.19;5078057;28;20257;-82
2023/04/13 10:56:03;;;;;;;3.95;1.55;;;;;;;14.01;42.37;98594.84;5073942;28;20211;-82
2023/04/13 10:58:31;;;;;;;2.25;1.52;;;;;;;13.99;42.30;98588.88;5062175;28;20201;-83
2023/04/13 11:00:57;;;;;;;2.67;1.00;;;;;;;13.95;42.89;98594.44;5078809;28;20241;-82
2023/04/13 11:03:26;;;;;;;2.23;1.20;;;;;;;14.03;43.29;98593.72;5073645;28;20225;-82
2023/04/13 11:05:58;;;;;;;3.85;1.92;;;;;;;14.19;43.76;98589.66;5075114;28;20465;-82
2023/04/13 11:08:24;;;;;;;6.35;2.38;;;;;;;14.29;42.87;98591.28;5077148;28;20213;-82
2023/04/13 11:10:53;;;;;;;5.27;2.20;;;;;;;14.35;42.56;98595.97;5072084;28;20182;-83
2023/04/13 11:13:20;;;;;;;13.52;2.40;;;;;;;14.53;42.47;98592.59;5074364;28;20225;-82
2023/04/13 11:15:48;;;;;;;2.20;1.23;;;;;;;14.71;42.26;98585.50;5074916;28;20268;-80
2023/04/13 11:18:24;;;;;;;3.55;1.83;;;;;;;14.78;42.04;98583.94;5095931;22;20755;-81
2023/04/13 11:20:50;;;;;;;1.77;1.00;;;;;;;14.77;41.95;98590.22;5065369;28;20288;-80
2023/04/13 11:23:17;;;;;;;2.63;1.00;;;;;;;14.68;41.66;98582.31;5054776;28;20280;-81
2023/04/13 11:26:00;;;;;;;1.60;1.15;;;;;;;14.49;42.37;98589.34;5082885;28;20200;-81
2023/04/13 11:28:41;;;;;;;2.03;1.08;;;;;;;14.23;42.04;98591.88;5082262;28;20798;-81
2023/04/13 11:31:07;;;;;;;3.83;1.23;;;;;;;13.99;42.22;98600.28;5084091;28;20199;-80
2023/04/13 11:33:33;;;;;;;1.20;0.97;;;;;;;13.75;42.43;98603.41;5082324;28;20199;-80
2023/04/13 11:35:59;;;;;;;33.58;3.03;;;;;;;13.51;43.24;98619.69;5084259;28;20973;-81
2023/04/13 11:38:26;;;;;;;1.38;1.15;;;;;;;13.23;45.48;98616.91;5082476;28;20266;-81
2023/04/13 11:40:59;;;;;;;3.55;1.45;;;;;;;12.91;47.97;98627.69;5084351;28;20242;-82
2023/04/13 11:43:24;;;;;;;3.45;1.30;;;;;;;12.53;50.58;98631.91;5084211;28;20204;-83
2023/04/13 11:45:51;;;;;;;1.83;1.60;;;;;;;12.20;53.51;98642.72;5085859;28;20209;-82